createdAt,value
2018-09-01T00:02:26.944Z,68.70
2018-09-01T00:04:55.602Z,69.40
2018-09-01T00:07:24.321Z,68.80
2018-09-01T00:09:52.941Z,69.00
2018-09-01T00:12:21.606Z,69.10
2018-09-01T00:14:50.320Z,69.00
2018-09-01T00:17:24.415Z,68.70
2018-09-01T00:19:53.035Z,69.20
2018-09-01T00:22:21.684Z,69.90
2018-09-01T00:24:51.766Z,70.50
2018-09-01T00:27:20.958Z,70.50
2018-09-01T00:29:50.175Z,70.50
2018-09-01T00:32:19.163Z,70.90
2018-09-01T00:34:47.935Z,70.50
2018-09-01T00:37:22.243Z,70.10
2018-09-01T00:39:50.959Z,69.80
2018-09-01T00:42:19.801Z,69.50
2018-09-01T00:44:48.431Z,69.50
2018-09-01T00:47:17.157Z,69.70
2018-09-01T00:49:45.813Z,69.90
2018-09-01T00:52:14.474Z,70.30
2018-09-01T00:54:43.188Z,70.50
2018-09-01T00:57:11.848Z,71.10
2018-09-01T00:59:40.513Z,72.30
2018-09-01T01:02:09.176Z,71.90
2018-09-01T01:04:37.835Z,72.20
2018-09-01T01:07:06.513Z,72.40
2018-09-01T01:09:35.181Z,72.70
2018-09-01T01:12:03.841Z,72.00
2018-09-01T01:14:32.507Z,73.00
2018-09-01T01:17:01.199Z,72.90
2018-09-01T01:19:29.847Z,73.00
2018-09-01T01:21:58.511Z,72.90
2018-09-01T01:24:27.193Z,72.50
2018-09-01T01:26:56.315Z,72.50
2018-09-01T01:29:26.143Z,72.90
2018-09-01T01:31:54.847Z,72.90
2018-09-01T01:34:23.796Z,72.60
2018-09-01T01:36:52.463Z,72.50
2018-09-01T01:39:21.107Z,73.20
2018-09-01T01:41:49.780Z,72.10
2018-09-01T01:44:18.448Z,72.30
2018-09-01T01:46:47.107Z,72.20
2018-09-01T01:49:15.776Z,72.30
2018-09-01T01:51:44.438Z,72.40
2018-09-01T01:54:13.116Z,72.50
2018-09-01T01:56:41.764Z,72.60
2018-09-01T01:59:10.621Z,72.60
2018-09-01T02:01:39.317Z,73.20
2018-09-01T02:04:07.972Z,73.50
2018-09-01T02:06:36.657Z,73.60
2018-09-01T02:09:06.418Z,73.70
2018-09-01T02:11:35.096Z,73.50
2018-09-01T02:14:03.768Z,74.10
2018-09-01T02:16:32.436Z,73.60
2018-09-01T02:19:01.121Z,73.70
2018-09-01T02:21:29.804Z,73.70
2018-09-01T02:23:58.476Z,73.80
2018-09-01T02:26:27.149Z,74.10
2018-09-01T02:28:55.835Z,74.30
2018-09-01T02:31:24.489Z,74.30
2018-09-01T02:33:53.137Z,74.50
2018-09-01T02:36:21.802Z,74.30
2018-09-01T02:38:50.450Z,74.60
2018-09-01T02:41:19.140Z,74.20
2018-09-01T02:43:47.812Z,74.30
2018-09-01T02:46:16.486Z,74.30
2018-09-01T02:48:45.137Z,73.60
2018-09-01T02:51:13.804Z,74.00
2018-09-01T02:53:42.482Z,74.00
2018-09-01T02:56:11.137Z,74.10
2018-09-01T02:58:39.792Z,74.30
2018-09-01T03:01:14.048Z,74.20
2018-09-01T03:03:42.724Z,73.80
2018-09-01T03:06:11.385Z,73.80
2018-09-01T03:08:40.061Z,74.10
2018-09-01T03:11:08.704Z,74.00
2018-09-01T03:13:37.377Z,74.60
2018-09-01T03:16:06.029Z,74.30
2018-09-01T03:18:34.679Z,74.40
2018-09-01T03:21:03.332Z,75.20
2018-09-01T03:23:32.007Z,75.10
2018-09-01T03:26:00.881Z,74.70
2018-09-01T03:28:29.705Z,74.00
2018-09-01T03:30:58.371Z,74.30
2018-09-01T03:33:27.068Z,74.20
2018-09-01T03:35:55.719Z,74.30
2018-09-01T03:38:24.407Z,74.50
2018-09-01T03:40:53.043Z,74.60
2018-09-01T03:43:21.707Z,74.70
2018-09-01T03:45:50.344Z,74.50
2018-09-01T03:48:19.090Z,74.10
2018-09-01T03:50:47.762Z,74.90
2018-09-01T03:53:16.415Z,74.40
2018-09-01T03:55:45.054Z,73.90
2018-09-01T03:58:13.724Z,74.00
2018-09-01T04:00:42.381Z,73.80
2018-09-01T04:03:11.036Z,73.90
2018-09-01T04:05:39.707Z,73.70
2018-09-01T04:08:08.364Z,73.70
2018-09-01T04:10:37.052Z,73.90
2018-09-01T04:13:05.748Z,73.70
2018-09-01T04:15:34.424Z,73.30
2018-09-01T04:18:03.103Z,73.80
2018-09-01T04:20:31.772Z,73.60
2018-09-01T04:23:00.426Z,73.40
2018-09-01T04:25:29.070Z,73.50
2018-09-01T04:27:57.768Z,73.50
2018-09-01T04:30:26.436Z,73.50
2018-09-01T04:32:55.091Z,73.70
2018-09-01T04:35:23.753Z,73.70
2018-09-01T04:37:52.747Z,74.20
2018-09-01T04:40:21.399Z,74.30
2018-09-01T04:42:50.233Z,73.90
2018-09-01T04:45:19.385Z,74.20
2018-09-01T04:47:48.042Z,74.10
2018-09-01T04:50:16.715Z,73.70
2018-09-01T04:52:45.370Z,73.80
2018-09-01T04:55:14.044Z,74.00
2018-09-01T04:57:42.707Z,74.10
2018-09-01T05:00:15.620Z,74.20
2018-09-01T05:02:44.324Z,74.20
2018-09-01T05:05:12.988Z,74.30
2018-09-01T05:07:41.634Z,74.80
2018-09-01T05:10:10.298Z,74.60
2018-09-01T05:12:38.945Z,74.90
2018-09-01T05:15:07.612Z,74.60
2018-09-01T05:17:36.288Z,74.40
2018-09-01T05:20:05.199Z,74.40
2018-09-01T05:22:33.871Z,74.80
2018-09-01T05:25:02.568Z,74.20
2018-09-01T05:27:31.728Z,74.60
2018-09-01T05:30:00.459Z,74.50
2018-09-01T05:32:29.260Z,74.80
2018-09-01T05:34:57.980Z,74.50
2018-09-01T05:37:26.676Z,75.10
2018-09-01T05:39:55.345Z,75.30
2018-09-01T05:42:23.992Z,75.30
2018-09-01T05:44:52.661Z,75.30
2018-09-01T05:47:21.312Z,75.30
2018-09-01T05:49:49.980Z,75.70
2018-09-01T05:52:18.640Z,75.80
2018-09-01T05:54:47.304Z,76.00
2018-09-01T05:57:15.950Z,75.90
2018-09-01T05:59:44.625Z,76.20
2018-09-01T06:02:13.382Z,76.20
2018-09-01T06:04:42.057Z,76.20
2018-09-01T06:07:10.733Z,76.10
2018-09-01T06:09:39.411Z,76.20
2018-09-01T06:12:08.076Z,76.60
2018-09-01T06:14:36.850Z,76.30
2018-09-01T06:17:06.069Z,76.30
2018-09-01T06:19:34.728Z,76.60
2018-09-01T06:22:03.400Z,76.80
2018-09-01T06:24:32.059Z,76.50
2018-09-01T06:27:03.351Z,76.50
2018-09-01T06:29:31.988Z,76.90
2018-09-01T06:32:03.067Z,77.10
2018-09-01T06:34:31.737Z,77.00
2018-09-01T06:37:00.602Z,76.80
2018-09-01T06:39:29.255Z,77.20
2018-09-01T06:41:57.923Z,77.30
2018-09-01T06:44:26.585Z,77.50
2018-09-01T06:46:55.327Z,77.80
2018-09-01T06:49:23.997Z,77.10
2018-09-01T06:51:52.668Z,77.80
2018-09-01T06:54:21.339Z,78.00
2018-09-01T06:56:50.052Z,78.60
2018-09-01T06:59:18.788Z,78.30
2018-09-01T07:01:47.441Z,78.70
2018-09-01T07:04:16.143Z,79.10
2018-09-01T07:06:44.900Z,78.80
2018-09-01T07:09:13.548Z,78.90
2018-09-01T07:11:42.230Z,79.10
2018-09-01T07:14:10.883Z,78.80
2018-09-01T07:16:39.564Z,79.10
2018-09-01T07:19:08.244Z,79.40
2018-09-01T07:21:36.903Z,79.40
2018-09-01T07:24:05.694Z,79.10
2018-09-01T07:26:34.343Z,79.10
2018-09-01T07:29:03.052Z,79.20
2018-09-01T07:31:32.194Z,79.60
2018-09-01T07:34:00.563Z,79.10
2018-09-01T07:36:29.238Z,79.10
2018-09-01T07:38:57.910Z,79.20
2018-09-01T07:41:26.601Z,79.20
2018-09-01T07:43:55.266Z,79.00
2018-09-01T07:46:23.936Z,79.00
2018-09-01T07:48:52.594Z,78.30
2018-09-01T07:51:21.260Z,78.60
2018-09-01T07:53:49.931Z,78.50
2018-09-01T07:56:18.698Z,78.10
2018-09-01T07:58:47.279Z,77.70
2018-09-01T08:01:16.117Z,78.10
2018-09-01T08:03:44.783Z,78.10
2018-09-01T08:06:13.495Z,78.00
2018-09-01T08:08:42.199Z,77.60
2018-09-01T08:11:10.904Z,76.60
2018-09-01T08:13:39.631Z,76.30
2018-09-01T08:16:08.237Z,76.30
2018-09-01T08:18:36.907Z,76.40
2018-09-01T08:21:05.865Z,76.20
2018-09-01T08:23:34.573Z,75.30
2018-09-01T08:26:03.349Z,75.20
2018-09-01T08:28:32.002Z,75.20
2018-09-01T08:31:00.756Z,74.50
2018-09-01T08:33:29.486Z,74.00
2018-09-01T08:35:58.179Z,73.90
2018-09-01T08:38:26.903Z,73.50
2018-09-01T08:40:55.589Z,73.00
2018-09-01T08:43:24.375Z,72.80
2018-09-01T08:45:53.045Z,72.20
2018-09-01T08:48:21.814Z,71.80
2018-09-01T08:50:50.441Z,71.60
2018-09-01T08:53:19.134Z,71.40
2018-09-01T08:55:47.945Z,69.90
2018-09-01T08:58:16.641Z,64.50
2018-09-01T09:00:45.313Z,66.20
2018-09-01T09:03:14.015Z,62.80
2018-09-01T09:05:42.865Z,61.50
2018-09-01T09:08:11.410Z,63.20
2018-09-01T09:10:40.042Z,62.70
2018-09-01T09:13:08.776Z,63.00
2018-09-01T09:15:37.435Z,63.70
2018-09-01T09:18:06.139Z,61.80
2018-09-01T09:20:34.854Z,62.40
2018-09-01T09:23:03.578Z,61.40
2018-09-01T09:25:32.257Z,60.00
2018-09-01T09:28:00.986Z,59.80
2018-09-01T09:30:29.643Z,59.20
2018-09-01T09:32:58.444Z,59.30
2018-09-01T09:35:27.126Z,60.40
2018-09-01T09:37:55.827Z,61.20
2018-09-01T09:40:24.519Z,62.70
2018-09-01T09:42:53.297Z,60.30
2018-09-01T09:45:22.380Z,59.50
2018-09-01T09:47:51.076Z,57.90
2018-09-01T09:50:19.764Z,56.00
2018-09-01T09:52:48.453Z,55.50
2018-09-01T09:55:17.185Z,54.10
2018-09-01T09:57:45.864Z,54.80
2018-09-01T10:00:14.514Z,53.90
2018-09-01T10:02:43.200Z,52.10
2018-09-01T10:05:11.853Z,53.20
2018-09-01T10:07:40.541Z,52.90
2018-09-01T10:10:09.213Z,54.30
2018-09-01T10:12:37.913Z,54.70
2018-09-01T10:15:06.663Z,55.30
2018-09-01T10:17:35.369Z,54.80
2018-09-01T10:20:04.115Z,55.20
2018-09-01T10:22:32.757Z,55.40
2018-09-01T10:25:01.484Z,54.10
2018-09-01T10:27:30.139Z,53.80
2018-09-01T10:29:58.925Z,52.00
2018-09-01T10:32:27.669Z,52.10
2018-09-01T10:34:56.432Z,49.70
2018-09-01T10:37:25.113Z,49.60
2018-09-01T10:39:53.857Z,47.60
2018-09-01T10:42:22.531Z,47.30
2018-09-01T10:44:51.219Z,46.90
2018-09-01T10:47:19.914Z,48.50
2018-09-01T10:49:48.581Z,49.60
2018-09-01T10:52:17.415Z,50.60
2018-09-01T10:54:46.090Z,49.80
2018-09-01T10:57:14.887Z,47.00
2018-09-01T10:59:43.623Z,49.00
2018-09-01T11:02:12.305Z,48.60
2018-09-01T11:04:40.967Z,47.30
2018-09-01T11:07:09.645Z,43.40
2018-09-01T11:09:38.415Z,43.70
2018-09-01T11:12:07.066Z,44.30
2018-09-01T11:14:35.792Z,44.30
2018-09-01T11:17:04.603Z,42.70
2018-09-01T11:19:33.453Z,43.00
2018-09-01T11:22:02.196Z,44.80
2018-09-01T11:24:30.872Z,46.60
2018-09-01T11:26:59.521Z,48.00
2018-09-01T11:29:28.236Z,49.00
2018-09-01T11:31:56.911Z,49.10
2018-09-01T11:34:25.633Z,49.20
2018-09-01T11:36:54.363Z,48.60
2018-09-01T11:39:23.039Z,49.40
2018-09-01T11:41:51.682Z,49.80
2018-09-01T11:44:20.416Z,50.60
2018-09-01T11:46:49.112Z,50.50
2018-09-01T11:49:17.771Z,50.50
2018-09-01T11:51:46.424Z,50.80
2018-09-01T11:54:15.103Z,50.10
2018-09-01T11:56:43.766Z,50.00
2018-09-01T11:59:12.690Z,50.10
2018-09-01T12:01:41.604Z,50.20
2018-09-01T12:04:10.448Z,50.40
2018-09-01T12:06:39.161Z,51.40
2018-09-01T12:09:08.278Z,50.30
2018-09-01T12:11:36.913Z,48.80
2018-09-01T12:14:05.621Z,49.80
2018-09-01T12:16:34.278Z,49.60
2018-09-01T12:19:03.028Z,50.20
2018-09-01T12:21:31.703Z,49.60
2018-09-01T12:24:00.399Z,49.50
2018-09-01T12:26:29.055Z,48.20
2018-09-01T12:28:57.803Z,48.80
2018-09-01T12:31:26.489Z,49.70
2018-09-01T12:33:55.196Z,49.30
2018-09-01T12:36:24.064Z,49.60
2018-09-01T12:38:52.859Z,49.60
2018-09-01T12:41:21.645Z,49.20
2018-09-01T12:43:50.303Z,49.60
2018-09-01T12:46:18.951Z,48.80
2018-09-01T12:48:47.613Z,49.80
2018-09-01T12:51:16.269Z,48.40
2018-09-01T12:53:44.984Z,48.60
2018-09-01T12:56:13.644Z,48.00
2018-09-01T12:58:42.339Z,48.40
2018-09-01T13:01:11.022Z,48.40
2018-09-01T13:03:39.903Z,47.20
2018-09-01T13:06:09.413Z,47.40
2018-09-01T13:08:38.077Z,47.80
2018-09-01T13:11:06.890Z,48.00
2018-09-01T13:13:35.584Z,47.30
2018-09-01T13:16:04.256Z,47.60
2018-09-01T13:18:33.044Z,47.30
2018-09-01T13:21:01.773Z,47.70
2018-09-01T13:23:30.542Z,48.50
2018-09-01T13:25:59.184Z,48.40
2018-09-01T13:28:27.852Z,48.10
2018-09-01T13:30:56.528Z,48.40
2018-09-01T13:33:25.209Z,49.30
2018-09-01T13:35:53.870Z,49.40
2018-09-01T13:38:22.626Z,49.90
2018-09-01T13:40:51.325Z,49.70
2018-09-01T13:43:20.030Z,50.00
2018-09-01T13:45:49.109Z,50.30
2018-09-01T13:48:17.844Z,48.60
2018-09-01T13:50:46.526Z,48.70
2018-09-01T13:53:15.211Z,48.90
2018-09-01T13:55:43.904Z,49.50
2018-09-01T13:58:12.580Z,49.60
2018-09-01T14:00:41.360Z,49.40
2018-09-01T14:03:10.026Z,49.50
2018-09-01T14:05:38.756Z,49.20
2018-09-01T14:08:07.486Z,49.20
2018-09-01T14:10:36.152Z,49.60
2018-09-01T14:13:05.626Z,49.60
2018-09-01T14:15:34.505Z,49.70
2018-09-01T14:18:03.177Z,49.60
2018-09-01T14:20:31.912Z,50.30
2018-09-01T14:23:00.581Z,50.20
2018-09-01T14:25:29.248Z,49.90
2018-09-01T14:27:57.943Z,49.60
2018-09-01T14:30:26.637Z,49.90
2018-09-01T14:32:55.370Z,48.80
2018-09-01T14:35:24.059Z,48.90
2018-09-01T14:37:52.745Z,49.30
2018-09-01T14:40:21.425Z,49.30
2018-09-01T14:42:50.129Z,49.40
2018-09-01T14:45:18.814Z,50.40
2018-09-01T14:47:47.517Z,50.30
2018-09-01T14:50:16.167Z,50.90
2018-09-01T14:52:44.855Z,50.70
2018-09-01T14:55:13.537Z,50.80
2018-09-01T14:57:42.188Z,51.30
2018-09-01T15:00:10.859Z,51.80
2018-09-01T15:02:39.542Z,51.80
2018-09-01T15:05:08.202Z,51.20
2018-09-01T15:07:36.864Z,50.90
2018-09-01T15:10:05.594Z,51.10
2018-09-01T15:12:34.297Z,51.00
2018-09-01T15:15:02.957Z,50.30
2018-09-01T15:17:31.602Z,49.70
2018-09-01T15:20:00.305Z,49.10
2018-09-01T15:22:28.982Z,49.10
2018-09-01T15:24:57.655Z,49.10
2018-09-01T15:27:26.413Z,48.90
2018-09-01T15:29:55.148Z,49.80
2018-09-01T15:32:23.860Z,48.30
2018-09-01T15:34:52.470Z,48.60
2018-09-01T15:37:21.127Z,48.50
2018-09-01T15:39:50.006Z,48.50
2018-09-01T15:42:18.668Z,48.70
2018-09-01T15:44:47.384Z,48.90
2018-09-01T15:47:16.080Z,49.10
2018-09-01T15:49:45.022Z,49.50
2018-09-01T15:52:13.700Z,49.20
2018-09-01T15:54:42.400Z,48.50
2018-09-01T15:57:11.056Z,48.80
2018-09-01T15:59:39.711Z,49.00
2018-09-01T16:02:08.493Z,49.50
2018-09-01T16:04:37.147Z,49.70
2018-09-01T16:07:05.848Z,49.80
2018-09-01T16:09:34.573Z,50.10
2018-09-01T16:12:03.243Z,50.30
2018-09-01T16:14:31.992Z,50.20
2018-09-01T16:17:00.669Z,50.90
2018-09-01T16:19:29.458Z,50.20
2018-09-01T16:21:58.141Z,50.30
2018-09-01T16:24:26.864Z,50.40
2018-09-01T16:26:55.508Z,50.60
2018-09-01T16:29:24.154Z,50.90
2018-09-01T16:31:52.894Z,50.70
2018-09-01T16:34:21.767Z,51.50
2018-09-01T16:36:50.575Z,50.80
2018-09-01T16:39:19.217Z,50.60
2018-09-01T16:41:47.943Z,50.90
2018-09-01T16:44:16.600Z,51.10
2018-09-01T16:46:45.365Z,51.30
2018-09-01T16:49:14.051Z,51.50
2018-09-01T16:51:42.707Z,51.40
2018-09-01T16:54:11.357Z,51.10
2018-09-01T16:56:40.065Z,51.30
2018-09-01T16:59:08.751Z,51.40
2018-09-01T17:01:37.394Z,51.40
2018-09-01T17:04:06.270Z,51.40
2018-09-01T17:06:35.086Z,50.80
2018-09-01T17:09:04.120Z,51.10
2018-09-01T17:11:32.890Z,51.60
2018-09-01T17:14:01.544Z,51.40
2018-09-01T17:16:30.196Z,51.30
2018-09-01T17:18:58.948Z,50.00
2018-09-01T17:21:27.596Z,49.50
2018-09-01T17:23:56.338Z,49.90
2018-09-01T17:26:25.064Z,50.60
2018-09-01T17:28:53.724Z,50.20
2018-09-01T17:31:22.432Z,50.50
2018-09-01T17:33:51.238Z,50.50
2018-09-01T17:39:14.162Z,51.80
2018-09-01T17:41:43.268Z,51.30
2018-09-01T17:44:11.952Z,51.00
2018-09-01T17:46:40.708Z,51.00
2018-09-01T17:49:09.379Z,51.20
2018-09-01T17:51:38.124Z,51.50
2018-09-01T17:54:06.952Z,51.50
2018-09-01T17:56:35.707Z,51.80
2018-09-01T17:59:04.348Z,51.10
2018-09-01T18:01:33.414Z,51.50
2018-09-01T18:04:02.091Z,51.80
2018-09-01T18:06:30.753Z,51.80
2018-09-01T18:08:59.414Z,51.80
2018-09-01T18:11:28.064Z,52.30
2018-09-01T18:13:56.736Z,52.80
2018-09-01T18:16:25.401Z,53.30
2018-09-01T18:18:54.057Z,53.10
2018-09-01T18:21:22.757Z,53.30
2018-09-01T18:23:51.535Z,53.30
2018-09-01T18:26:20.200Z,53.00
2018-09-01T18:28:48.865Z,52.90
2018-09-01T18:31:17.541Z,52.90
2018-09-01T18:33:46.208Z,53.10
2018-09-01T18:36:14.965Z,52.90
2018-09-01T18:38:43.600Z,53.20
2018-09-01T18:41:12.336Z,53.90
2018-09-01T18:43:40.945Z,53.60
2018-09-01T18:46:09.824Z,53.90
2018-09-01T18:48:38.525Z,53.50
2018-09-01T18:51:07.179Z,53.80
2018-09-01T18:53:35.827Z,54.00
2018-09-01T18:56:04.496Z,53.80
2018-09-01T18:58:33.197Z,54.30
2018-09-01T19:01:01.859Z,54.40
2018-09-01T19:03:30.850Z,54.70
2018-09-01T19:05:59.526Z,54.90
2018-09-01T19:08:28.173Z,54.70
2018-09-01T19:10:56.872Z,54.90
2018-09-01T19:13:25.521Z,54.60
2018-09-01T19:15:54.163Z,54.80
2018-09-01T19:18:22.840Z,54.30
2018-09-01T19:20:51.484Z,53.90
2018-09-01T19:23:20.142Z,55.00
2018-09-01T19:25:48.960Z,54.30
2018-09-01T19:28:17.640Z,54.40
2018-09-01T19:30:46.288Z,54.90
2018-09-01T19:33:14.940Z,55.00
2018-09-01T19:35:43.611Z,55.50
2018-09-01T19:38:12.330Z,55.50
2018-09-01T19:40:41.121Z,55.90
2018-09-01T19:43:09.760Z,55.40
2018-09-01T19:45:38.556Z,55.70
2018-09-01T19:48:07.126Z,55.70
2018-09-01T19:50:35.776Z,56.10
2018-09-01T19:53:04.614Z,56.10
2018-09-01T19:55:33.280Z,56.00
2018-09-01T19:58:01.988Z,56.30
2018-09-01T20:00:30.684Z,56.50
2018-09-01T20:02:59.564Z,56.10
2018-09-01T20:05:28.299Z,56.20
2018-09-01T20:07:56.930Z,56.20
2018-09-01T20:10:25.609Z,56.70
2018-09-01T20:12:54.657Z,57.10
2018-09-01T20:15:23.364Z,57.00
2018-09-01T20:17:52.205Z,57.30
2018-09-01T20:20:20.916Z,57.30
2018-09-01T20:22:49.597Z,57.40
2018-09-01T20:25:18.331Z,57.50
2018-09-01T20:27:46.984Z,57.50
2018-09-01T20:30:16.537Z,57.40
2018-09-01T20:32:45.196Z,57.90
2018-09-01T20:35:19.339Z,58.10
2018-09-01T20:37:48.038Z,58.00
2018-09-01T20:40:17.667Z,57.80
2018-09-01T20:42:46.347Z,58.10
2018-09-01T20:45:15.007Z,58.20
2018-09-01T20:47:43.655Z,58.50
2018-09-01T20:50:12.380Z,58.60
2018-09-01T20:52:41.075Z,58.70
2018-09-01T20:55:09.779Z,58.80
2018-09-01T20:57:38.493Z,58.90
2018-09-01T21:00:07.384Z,58.90
2018-09-01T21:02:36.099Z,59.00
2018-09-01T21:05:04.840Z,59.10
2018-09-01T21:07:33.496Z,59.30
2018-09-01T21:10:02.790Z,59.50
2018-09-01T21:12:31.436Z,59.50
2018-09-01T21:15:00.088Z,59.50
2018-09-01T21:17:28.803Z,59.60
2018-09-01T21:19:57.448Z,59.70
2018-09-01T21:22:26.160Z,59.70
2018-09-01T21:24:55.174Z,59.70
2018-09-01T21:27:23.848Z,59.70
2018-09-01T21:29:52.642Z,59.70
2018-09-01T21:32:21.318Z,59.70
2018-09-01T21:34:49.984Z,59.90
2018-09-01T21:37:18.608Z,60.00
2018-09-01T21:39:47.561Z,60.00
2018-09-01T21:42:16.129Z,59.80
2018-09-01T21:44:44.804Z,60.20
2018-09-01T21:47:13.962Z,60.00
2018-09-01T21:49:42.665Z,60.20
2018-09-01T21:52:11.265Z,60.30
2018-09-01T21:54:39.944Z,60.30
2018-09-01T21:57:08.675Z,60.70
2018-09-01T21:59:37.263Z,60.50
2018-09-01T22:02:11.760Z,60.50
2018-09-01T22:04:45.769Z,60.90
2018-09-01T22:07:14.546Z,61.00
2018-09-01T22:09:43.221Z,60.70
2018-09-01T22:12:11.875Z,61.10
2018-09-01T22:14:40.526Z,60.90
2018-09-01T22:17:09.175Z,61.30
2018-09-01T22:19:37.837Z,61.50
2018-09-01T22:22:06.647Z,61.60
2018-09-01T22:24:35.307Z,61.70
2018-09-01T22:27:04.117Z,61.70
2018-09-01T22:29:32.755Z,61.70
2018-09-01T22:32:01.497Z,61.70
2018-09-01T22:34:30.135Z,62.10
2018-09-01T22:36:58.779Z,62.30
2018-09-01T22:39:27.435Z,62.30
2018-09-01T22:41:56.083Z,62.30
2018-09-01T22:44:24.897Z,62.40
2018-09-01T22:46:54.275Z,62.30
2018-09-01T22:49:22.939Z,62.30
2018-09-01T22:51:51.594Z,62.30
2018-09-01T22:54:20.266Z,62.30
2018-09-01T22:56:48.937Z,62.60
2018-09-01T22:59:17.591Z,62.70
2018-09-01T23:01:46.248Z,62.80
2018-09-01T23:04:14.895Z,62.80
2018-09-01T23:06:43.591Z,62.70
2018-09-01T23:09:12.208Z,63.00
2018-09-01T23:11:41.092Z,62.90
2018-09-01T23:14:09.751Z,62.90
2018-09-01T23:16:38.425Z,62.90
2018-09-01T23:19:07.124Z,62.90
2018-09-01T23:21:35.784Z,62.70
2018-09-01T23:24:04.420Z,62.80
2018-09-01T23:26:33.074Z,62.90
2018-09-01T23:29:01.752Z,63.00
2018-09-01T23:31:30.414Z,63.00
2018-09-01T23:33:59.040Z,63.20
2018-09-01T23:36:27.692Z,63.50
2018-09-01T23:38:56.338Z,63.40
2018-09-01T23:41:24.984Z,63.90
2018-09-01T23:43:53.664Z,64.30
2018-09-01T23:46:22.346Z,64.60
2018-09-01T23:48:50.978Z,64.80
2018-09-01T23:51:19.642Z,65.00
2018-09-01T23:53:48.306Z,65.50
2018-09-01T23:56:16.988Z,65.80
2018-09-01T23:58:45.628Z,66.10
